Terminal Aerodrome Forecast
Issued by NWS

Current Version | Previous Version | Text Only | Print | Product List | Glossary On
Versions: 1 2 3 4 5 6 7 8 9 10 11 12 13 14 15 16 17 18
000
FTUS41 KBGM 012337
TAFITH
TAF
KITH 012337Z 0200/0224 15010KT P6SM BKN015 OVC040
     FM020200 15006KT 5SM -DZ BR OVC012
     FM020900 VRB05KT 3SM -RA BR OVC006
     FM021500 24006KT 5SM -RA BR OVC008
     FM021800 32010KT P6SM OVC015=

USA.gov is the U.S. government's official web portal to all federal, state and local government web resources and services.